createdAt,value
2022-11-09T00:00:30.287Z,1.12
2022-11-09T00:02:01.679Z,1.11
2022-11-09T00:03:32.989Z,1.35
2022-11-09T00:05:04.355Z,1.12
2022-11-09T00:06:35.755Z,1.07
2022-11-09T00:08:07.238Z,1.08
2022-11-09T00:09:38.641Z,1.13
2022-11-09T00:11:10.441Z,1.18
2022-11-09T00:12:41.766Z,1.04
2022-11-09T00:14:13.311Z,1.17
2022-11-09T00:15:44.706Z,1.26
2022-11-09T00:17:16.131Z,1.06
2022-11-09T00:18:47.640Z,1.11
2022-11-09T00:20:18.997Z,1.14
2022-11-09T00:21:50.357Z,1.12
2022-11-09T00:23:22.006Z,1.19
2022-11-09T00:24:53.678Z,1.14
2022-11-09T00:26:25.137Z,1.09
2022-11-09T00:27:56.733Z,1.18
2022-11-09T00:29:28.186Z,1.00
2022-11-09T00:30:59.907Z,1.16
2022-11-09T00:32:31.359Z,1.20
2022-11-09T00:34:02.660Z,1.10
2022-11-09T00:35:33.965Z,1.15
2022-11-09T00:37:05.231Z,1.17
2022-11-09T00:38:36.778Z,1.09
2022-11-09T00:40:13.246Z,1.30
2022-11-09T00:41:44.660Z,1.06
2022-11-09T00:43:16.170Z,0.96
2022-11-09T00:44:47.536Z,1.07
2022-11-09T00:46:18.864Z,1.05
2022-11-09T00:47:50.638Z,1.20
2022-11-09T00:49:21.941Z,1.09
2022-11-09T00:50:53.239Z,1.21
2022-11-09T00:52:24.721Z,1.17
2022-11-09T00:53:56.125Z,1.19
2022-11-09T00:55:27.506Z,1.21
2022-11-09T00:56:58.893Z,1.32
2022-11-09T00:58:30.325Z,1.11
2022-11-09T01:00:01.819Z,1.03
2022-11-09T01:01:33.358Z,1.23
2022-11-09T01:03:04.947Z,1.12
2022-11-09T01:04:36.285Z,1.37
2022-11-09T01:06:07.600Z,1.59
2022-11-09T01:07:38.955Z,1.35
2022-11-09T01:09:10.306Z,1.73
2022-11-09T01:10:41.632Z,1.61
2022-11-09T01:12:13.057Z,1.45
2022-11-09T01:13:44.793Z,1.12
2022-11-09T01:15:16.113Z,1.16
2022-11-09T01:16:47.524Z,1.28
2022-11-09T01:18:18.905Z,1.18
2022-11-09T01:19:50.400Z,1.10
2022-11-09T01:21:21.879Z,1.27
2022-11-09T01:22:53.214Z,1.17
2022-11-09T01:24:24.601Z,1.16
2022-11-09T01:25:56.972Z,1.20
2022-11-09T01:27:28.803Z,1.11
2022-11-09T01:29:00.255Z,1.13
2022-11-09T01:30:32.004Z,1.08
2022-11-09T01:32:03.453Z,1.23
2022-11-09T01:33:34.829Z,1.25
2022-11-09T01:35:06.139Z,1.21
2022-11-09T01:36:38.649Z,1.26
2022-11-09T01:38:09.931Z,1.22
2022-11-09T01:39:41.301Z,1.25
2022-11-09T01:41:13.067Z,1.14
2022-11-09T01:42:44.448Z,1.09
2022-11-09T01:44:15.858Z,1.22
2022-11-09T01:45:47.511Z,1.15
2022-11-09T01:47:19.049Z,1.25
2022-11-09T01:48:50.481Z,1.09
2022-11-09T01:50:21.952Z,1.31
2022-11-09T01:51:53.586Z,1.15
2022-11-09T01:53:25.054Z,1.26
2022-11-09T01:54:56.467Z,1.24
2022-11-09T01:56:27.841Z,1.04
2022-11-09T01:57:59.223Z,1.16
2022-11-09T01:59:30.728Z,1.27
2022-11-09T02:01:02.128Z,1.34
2022-11-09T02:02:33.497Z,1.25
2022-11-09T02:04:04.993Z,1.33
2022-11-09T02:05:36.423Z,1.66
2022-11-09T02:07:07.909Z,1.46
2022-11-09T02:08:39.485Z,1.23
2022-11-09T02:10:11.042Z,1.46
2022-11-09T02:11:42.368Z,1.36
2022-11-09T02:13:13.889Z,1.32
2022-11-09T02:14:45.423Z,1.34
2022-11-09T02:16:16.871Z,1.21
2022-11-09T02:17:48.414Z,1.24
2022-11-09T02:19:19.922Z,1.24
2022-11-09T02:20:51.265Z,1.23
2022-11-09T02:22:22.680Z,1.41
2022-11-09T02:23:54.375Z,1.37
2022-11-09T02:25:25.864Z,1.28
2022-11-09T02:26:57.524Z,1.44
2022-11-09T02:28:29.209Z,1.45
2022-11-09T02:30:00.633Z,1.45
2022-11-09T02:31:32.492Z,1.67
2022-11-09T02:33:03.778Z,1.38
2022-11-09T02:34:35.241Z,1.50
2022-11-09T02:36:06.562Z,1.71
2022-11-09T02:37:37.877Z,1.46
2022-11-09T02:39:09.201Z,1.40
2022-11-09T02:40:40.514Z,1.60
2022-11-09T02:42:13.712Z,1.28
2022-11-09T02:43:47.088Z,1.48
2022-11-09T02:45:18.431Z,1.38
2022-11-09T02:46:49.815Z,1.59
2022-11-09T02:48:21.701Z,1.36
2022-11-09T02:49:53.296Z,1.07
2022-11-09T02:51:25.845Z,1.43
2022-11-09T02:52:57.314Z,1.47
2022-11-09T02:54:28.853Z,1.32
2022-11-09T02:56:00.361Z,1.17
2022-11-09T02:57:31.825Z,1.44
2022-11-09T02:59:03.178Z,1.31
2022-11-09T03:00:34.496Z,1.27
2022-11-09T03:02:06.034Z,1.30
2022-11-09T03:03:37.432Z,1.22
2022-11-09T03:05:08.785Z,1.28
2022-11-09T03:06:40.192Z,1.35
2022-11-09T03:08:11.572Z,1.36
2022-11-09T03:09:43.237Z,1.45
2022-11-09T03:11:14.492Z,1.40
2022-11-09T03:12:45.818Z,1.39
2022-11-09T03:14:17.304Z,1.16
2022-11-09T03:15:48.726Z,1.19
2022-11-09T03:17:20.369Z,1.16
2022-11-09T03:18:51.858Z,1.30
2022-11-09T03:20:23.332Z,1.46
2022-11-09T03:21:54.793Z,1.53
2022-11-09T03:23:26.449Z,1.37
2022-11-09T03:24:57.961Z,1.25
2022-11-09T03:26:29.284Z,1.18
2022-11-09T03:28:00.673Z,1.12
2022-11-09T03:29:32.026Z,1.23
2022-11-09T03:31:03.472Z,1.18
2022-11-09T03:32:34.870Z,1.30
2022-11-09T03:34:06.313Z,1.27
2022-11-09T03:35:38.031Z,1.21
2022-11-09T03:37:09.593Z,1.22
2022-11-09T03:38:41.051Z,1.24
2022-11-09T03:40:12.739Z,1.18
2022-11-09T03:41:44.798Z,1.38
2022-11-09T03:43:17.723Z,1.37
2022-11-09T03:44:49.222Z,1.40
2022-11-09T03:46:20.603Z,1.28
2022-11-09T03:47:51.969Z,1.30
2022-11-09T03:49:23.246Z,1.28
2022-11-09T03:50:54.729Z,1.29
2022-11-09T03:52:26.112Z,1.12
2022-11-09T03:53:57.479Z,1.29
2022-11-09T03:55:28.858Z,1.17
2022-11-09T03:57:00.192Z,1.38
2022-11-09T03:58:31.560Z,1.29
2022-11-09T04:00:02.934Z,1.56
2022-11-09T04:01:34.354Z,1.44
2022-11-09T04:03:06.844Z,1.28
2022-11-09T04:04:38.257Z,1.26
2022-11-09T04:06:09.998Z,1.23
2022-11-09T04:07:41.437Z,1.50
2022-11-09T04:09:12.955Z,1.37
2022-11-09T04:10:44.355Z,1.33
2022-11-09T04:12:15.829Z,1.47
2022-11-09T04:13:47.345Z,1.15
2022-11-09T04:15:18.908Z,1.41
2022-11-09T04:16:50.272Z,1.29
2022-11-09T04:18:21.750Z,1.35
2022-11-09T04:19:53.322Z,1.15
2022-11-09T04:21:24.697Z,1.26
2022-11-09T04:22:56.045Z,1.29
2022-11-09T04:24:27.451Z,1.28
2022-11-09T04:25:59.247Z,1.28
2022-11-09T04:27:30.605Z,1.27
2022-11-09T04:29:06.949Z,1.36
2022-11-09T04:30:38.390Z,1.77
2022-11-09T04:32:09.839Z,1.78
2022-11-09T04:33:41.218Z,1.85
2022-11-09T04:35:12.610Z,2.11
2022-11-09T04:36:43.961Z,1.94
2022-11-09T04:38:15.325Z,1.47
2022-11-09T04:39:46.836Z,1.42
2022-11-09T04:41:18.133Z,1.44
2022-11-09T04:42:51.655Z,1.24
2022-11-09T04:44:23.650Z,1.36
2022-11-09T04:45:55.195Z,1.22
2022-11-09T04:47:26.533Z,1.53
2022-11-09T04:48:57.914Z,1.46
2022-11-09T04:50:29.291Z,1.29
2022-11-09T04:52:00.898Z,1.23
2022-11-09T04:53:32.373Z,1.29
2022-11-09T04:55:03.690Z,1.33
2022-11-09T04:56:34.973Z,1.33
2022-11-09T04:58:06.307Z,1.56
2022-11-09T04:59:37.608Z,1.32
2022-11-09T05:01:09.052Z,1.17
2022-11-09T05:02:40.627Z,1.31
2022-11-09T05:04:12.166Z,1.28
2022-11-09T05:05:48.111Z,1.25
2022-11-09T05:07:19.984Z,1.26
2022-11-09T05:08:51.500Z,1.14
2022-11-09T05:10:22.888Z,1.27
2022-11-09T05:11:54.225Z,1.27
2022-11-09T05:13:25.624Z,1.38
2022-11-09T05:14:57.087Z,1.39
2022-11-09T05:16:28.375Z,1.64
2022-11-09T05:18:00.154Z,1.32
2022-11-09T05:19:31.704Z,1.51
2022-11-09T05:21:03.064Z,1.31
2022-11-09T05:22:34.762Z,1.28
2022-11-09T05:24:06.190Z,1.25
2022-11-09T05:25:38.105Z,1.27
2022-11-09T05:27:09.500Z,1.40
2022-11-09T05:28:40.984Z,1.52
2022-11-09T05:30:12.485Z,1.67
2022-11-09T05:31:49.168Z,1.45
2022-11-09T05:33:23.667Z,1.51
2022-11-09T05:34:56.259Z,1.34
2022-11-09T05:36:27.624Z,1.61
2022-11-09T05:37:58.965Z,1.35
2022-11-09T05:39:30.482Z,1.52
2022-11-09T05:41:02.268Z,1.67
2022-11-09T05:42:33.886Z,1.73
2022-11-09T05:44:05.234Z,1.51
2022-11-09T05:45:42.726Z,1.82
2022-11-09T05:47:15.194Z,1.59
2022-11-09T05:48:46.828Z,1.68
2022-11-09T05:50:18.422Z,1.78
2022-11-09T05:51:49.679Z,1.63
2022-11-09T05:53:21.595Z,1.75
2022-11-09T05:54:53.081Z,1.71
2022-11-09T05:56:24.598Z,1.53
2022-11-09T05:57:56.032Z,1.69
2022-11-09T05:59:27.514Z,1.98
2022-11-09T06:00:58.930Z,1.57
2022-11-09T06:02:30.733Z,1.57
2022-11-09T06:04:01.981Z,1.66
2022-11-09T06:05:33.347Z,1.61
2022-11-09T06:07:05.015Z,1.49
2022-11-09T06:08:36.447Z,1.60
2022-11-09T06:10:07.824Z,1.72
2022-11-09T06:11:39.355Z,1.52
2022-11-09T06:13:10.751Z,1.70
2022-11-09T06:14:42.137Z,1.62
2022-11-09T06:16:13.457Z,1.57
2022-11-09T06:17:45.121Z,1.59
2022-11-09T06:19:16.576Z,1.54
2022-11-09T06:20:47.909Z,1.71
2022-11-09T06:22:49.616Z,1.80
2022-11-09T06:24:21.056Z,1.82
2022-11-09T06:25:52.478Z,2.07
2022-11-09T06:27:24.200Z,1.70
2022-11-09T06:28:55.510Z,1.81
2022-11-09T06:30:26.888Z,1.66
2022-11-09T06:31:58.332Z,1.68
2022-11-09T06:33:29.779Z,1.71
2022-11-09T06:35:01.079Z,1.79
2022-11-09T06:36:32.499Z,1.73
2022-11-09T06:38:03.846Z,1.74
2022-11-09T06:39:35.164Z,1.84
2022-11-09T06:41:06.572Z,2.04
2022-11-09T06:42:37.996Z,1.79
2022-11-09T06:44:09.545Z,1.88
2022-11-09T06:45:40.921Z,1.91
2022-11-09T06:47:12.559Z,1.82
2022-11-09T06:48:44.699Z,2.00
2022-11-09T06:50:15.987Z,1.90
2022-11-09T06:51:47.250Z,2.02
2022-11-09T06:53:18.959Z,1.89
2022-11-09T06:54:50.487Z,1.85
2022-11-09T06:56:21.866Z,1.82
2022-11-09T06:57:53.126Z,1.63
2022-11-09T06:59:24.463Z,1.83
2022-11-09T07:00:55.838Z,1.91
2022-11-09T07:02:27.328Z,1.79
2022-11-09T07:03:58.660Z,1.80
2022-11-09T07:05:30.059Z,1.68
2022-11-09T07:07:01.665Z,1.84
2022-11-09T07:08:33.243Z,1.93
2022-11-09T07:10:04.806Z,1.64
2022-11-09T07:11:37.344Z,1.90
2022-11-09T07:13:08.642Z,1.72
2022-11-09T07:14:39.945Z,1.86
2022-11-09T07:16:11.413Z,1.57
2022-11-09T07:17:43.158Z,1.78
2022-11-09T07:19:14.635Z,1.92
2022-11-09T07:20:46.080Z,2.06
2022-11-09T07:22:17.424Z,1.77
2022-11-09T07:23:48.834Z,1.89
2022-11-09T07:25:20.376Z,1.88
2022-11-09T07:26:52.002Z,1.91
2022-11-09T07:28:23.521Z,2.08
2022-11-09T07:29:54.860Z,1.89
2022-11-09T07:31:26.155Z,1.80
2022-11-09T07:33:10.090Z,1.81
2022-11-09T07:34:41.745Z,1.55
2022-11-09T07:36:16.932Z,1.62
2022-11-09T07:37:52.255Z,1.57
2022-11-09T07:39:23.538Z,1.41
2022-11-09T07:40:54.986Z,1.67
2022-11-09T07:42:26.309Z,1.60
2022-11-09T07:43:57.772Z,1.49
2022-11-09T07:45:29.099Z,1.67
2022-11-09T07:47:00.460Z,1.52
2022-11-09T07:48:31.970Z,1.61
2022-11-09T07:50:03.375Z,1.61
2022-11-09T07:51:34.903Z,1.59
2022-11-09T07:53:06.239Z,1.56
2022-11-09T07:54:37.517Z,1.46
2022-11-09T07:56:08.754Z,1.41
2022-11-09T07:57:40.023Z,1.38
2022-11-09T07:59:11.422Z,1.45
2022-11-09T08:00:42.732Z,1.58
2022-11-09T08:02:14.746Z,1.50
2022-11-09T08:03:47.170Z,1.49
2022-11-09T08:05:18.615Z,1.40
2022-11-09T08:06:49.881Z,1.32
2022-11-09T08:08:21.419Z,1.52
2022-11-09T08:09:52.836Z,1.54
2022-11-09T08:11:24.285Z,1.31
2022-11-09T08:12:55.832Z,1.45
2022-11-09T08:14:27.125Z,1.47
2022-11-09T08:15:58.508Z,1.36
2022-11-09T08:17:29.814Z,1.54
2022-11-09T08:19:01.254Z,1.38
2022-11-09T08:20:32.899Z,1.39
2022-11-09T08:22:04.203Z,1.49
2022-11-09T08:23:35.512Z,1.47
2022-11-09T08:25:06.812Z,1.65
2022-11-09T08:26:38.249Z,1.30
2022-11-09T08:28:14.517Z,1.64
2022-11-09T08:29:46.569Z,1.85
2022-11-09T08:31:17.872Z,1.41
2022-11-09T08:32:49.329Z,1.89
2022-11-09T08:34:20.670Z,1.60
2022-11-09T08:35:53.329Z,1.57
2022-11-09T08:37:24.853Z,1.47
2022-11-09T08:38:56.226Z,1.46
2022-11-09T08:40:27.662Z,1.41
2022-11-09T08:41:59.023Z,1.52
2022-11-09T08:43:30.557Z,1.66
2022-11-09T08:45:07.263Z,1.76
2022-11-09T08:46:41.440Z,1.55
2022-11-09T08:48:13.126Z,1.68
2022-11-09T08:49:44.564Z,1.57
2022-11-09T08:51:15.873Z,1.90
2022-11-09T08:52:47.174Z,1.90
2022-11-09T08:54:18.519Z,1.75
2022-11-09T08:55:50.063Z,1.62
2022-11-09T08:57:21.658Z,1.60
2022-11-09T08:58:53.134Z,1.59
2022-11-09T09:00:24.398Z,1.62
2022-11-09T09:01:55.767Z,1.58
2022-11-09T09:03:27.216Z,1.71
2022-11-09T09:04:58.500Z,1.37
2022-11-09T09:06:31.109Z,1.56
2022-11-09T09:08:02.883Z,1.55
2022-11-09T09:09:36.339Z,1.50
2022-11-09T09:11:07.563Z,1.71
2022-11-09T09:12:38.988Z,1.62
2022-11-09T09:14:10.533Z,1.55
2022-11-09T09:15:42.053Z,1.52
2022-11-09T09:17:13.432Z,1.45
2022-11-09T09:18:44.872Z,1.36
2022-11-09T09:20:16.149Z,1.42
2022-11-09T09:21:47.521Z,1.42
2022-11-09T09:23:18.859Z,1.52
2022-11-09T09:24:50.286Z,1.54
2022-11-09T09:26:21.585Z,1.34
2022-11-09T09:27:52.852Z,1.44
2022-11-09T09:29:24.234Z,1.33
2022-11-09T09:30:55.563Z,1.42
2022-11-09T09:32:26.886Z,1.53
2022-11-09T09:33:58.226Z,1.53
2022-11-09T09:35:29.584Z,1.36
2022-11-09T09:37:00.855Z,1.37
2022-11-09T09:38:32.220Z,1.36
2022-11-09T09:40:03.469Z,1.39
2022-11-09T09:41:34.904Z,1.51
2022-11-09T09:43:06.244Z,1.79
2022-11-09T09:44:37.688Z,1.55
2022-11-09T09:46:08.990Z,1.42
2022-11-09T09:47:40.274Z,1.40
2022-11-09T09:49:11.636Z,1.50
2022-11-09T09:50:43.239Z,1.42
2022-11-09T09:52:14.604Z,1.29
2022-11-09T09:53:46.000Z,1.32
2022-11-09T09:55:17.608Z,1.42
2022-11-09T09:56:49.164Z,1.20
2022-11-09T09:58:20.833Z,1.28
2022-11-09T09:59:52.560Z,1.24
2022-11-09T10:01:23.846Z,1.17
2022-11-09T10:02:55.290Z,1.47
2022-11-09T10:04:26.789Z,1.51
2022-11-09T10:05:58.395Z,1.53
2022-11-09T10:07:29.870Z,1.42
2022-11-09T10:09:01.370Z,1.53
2022-11-09T10:10:32.759Z,1.31
2022-11-09T10:12:04.187Z,1.45
2022-11-09T10:13:35.606Z,1.39
2022-11-09T10:15:07.004Z,1.60
2022-11-09T10:16:38.480Z,1.91
2022-11-09T10:18:09.756Z,1.32
2022-11-09T10:19:41.608Z,1.25
2022-11-09T10:21:12.977Z,1.36
2022-11-09T10:22:44.294Z,1.31
2022-11-09T10:24:15.973Z,1.38
2022-11-09T10:26:03.537Z,1.22
2022-11-09T10:27:36.101Z,1.09
2022-11-09T10:29:15.978Z,1.44
2022-11-09T10:30:48.003Z,1.37
2022-11-09T10:32:19.321Z,0.86
2022-11-09T10:33:51.709Z,1.32
2022-11-09T10:35:23.023Z,1.30
2022-11-09T10:36:54.386Z,1.18
2022-11-09T10:38:25.768Z,1.24
2022-11-09T10:39:57.180Z,1.09
2022-11-09T10:41:28.542Z,1.12
2022-11-09T10:43:00.501Z,1.37
2022-11-09T10:44:31.849Z,1.62
2022-11-09T10:46:03.298Z,1.19
2022-11-09T10:47:34.708Z,1.23
2022-11-09T10:49:11.234Z,1.12
2022-11-09T10:50:42.615Z,1.58
2022-11-09T10:52:19.027Z,1.32
2022-11-09T10:53:50.350Z,1.40
2022-11-09T10:55:21.750Z,1.30
2022-11-09T10:57:05.563Z,1.49
2022-11-09T10:58:37.680Z,1.30
2022-11-09T11:00:09.146Z,1.48
2022-11-09T11:01:40.675Z,1.36
2022-11-09T11:03:12.053Z,1.39
2022-11-09T11:04:43.492Z,1.58
2022-11-09T11:06:15.088Z,1.34
2022-11-09T11:08:19.121Z,1.69
2022-11-09T11:09:51.082Z,1.48
2022-11-09T11:11:32.881Z,1.29
2022-11-09T11:13:05.452Z,1.64
2022-11-09T11:14:36.969Z,1.46
2022-11-09T11:16:08.337Z,1.73
2022-11-09T11:17:39.724Z,1.45
2022-11-09T11:19:11.294Z,1.42
2022-11-09T11:20:43.752Z,1.16
2022-11-09T11:22:15.179Z,1.93
2022-11-09T11:23:46.684Z,1.49
2022-11-09T11:25:18.068Z,1.41
2022-11-09T11:26:49.390Z,1.43
2022-11-09T11:28:21.197Z,1.68
2022-11-09T11:29:52.617Z,1.49
2022-11-09T11:31:24.142Z,1.22
2022-11-09T11:32:55.563Z,0.89
2022-11-09T11:36:03.668Z,1.09
2022-11-09T11:37:35.043Z,1.27
2022-11-09T11:39:11.490Z,1.33
2022-11-09T11:40:43.095Z,1.29
2022-11-09T11:42:14.506Z,1.01
2022-11-09T11:43:45.975Z,1.22
2022-11-09T11:45:39.678Z,1.48
2022-11-09T11:47:12.626Z,1.34
2022-11-09T11:48:44.073Z,1.34
2022-11-09T11:50:15.520Z,1.33
2022-11-09T11:51:47.001Z,1.07
2022-11-09T11:53:18.950Z,1.21
2022-11-09T11:54:55.754Z,1.23
2022-11-09T11:56:27.502Z,0.92
2022-11-09T11:57:58.878Z,1.03
2022-11-09T11:59:30.253Z,1.02
2022-11-09T12:01:01.651Z,1.22
2022-11-09T12:02:33.255Z,1.31
2022-11-09T12:04:04.711Z,0.88
2022-11-09T12:05:36.037Z,1.11
2022-11-09T12:07:07.430Z,1.10
2022-11-09T12:08:38.827Z,1.36
2022-11-09T12:10:10.220Z,1.09
2022-11-09T12:11:41.643Z,1.35
2022-11-09T12:13:12.963Z,1.34
2022-11-09T12:14:44.336Z,1.06
2022-11-09T12:16:15.785Z,1.19
2022-11-09T12:17:47.195Z,1.36
2022-11-09T12:19:21.356Z,1.30
2022-11-09T12:20:56.975Z,1.17
2022-11-09T12:22:28.547Z,1.18
2022-11-09T12:23:59.964Z,1.13
2022-11-09T12:25:31.416Z,1.16
2022-11-09T12:27:30.363Z,1.01
2022-11-09T12:29:03.397Z,1.01
2022-11-09T12:31:00.647Z,1.03
2022-11-09T12:32:35.428Z,1.30
2022-11-09T12:34:06.799Z,1.06
2022-11-09T12:35:38.302Z,1.04
2022-11-09T12:37:09.658Z,1.34
2022-11-09T12:38:41.431Z,1.27
2022-11-09T12:40:12.908Z,1.26
2022-11-09T12:41:44.291Z,1.33
2022-11-09T12:43:15.673Z,1.14
2022-11-09T12:44:47.199Z,1.35
2022-11-09T12:46:18.604Z,1.20
2022-11-09T12:47:49.999Z,1.23
2022-11-09T12:49:21.472Z,1.43
2022-11-09T12:50:53.035Z,1.18
2022-11-09T12:52:24.550Z,1.24
2022-11-09T12:53:56.061Z,1.05
2022-11-09T12:55:27.375Z,1.40
2022-11-09T12:56:58.715Z,0.99
2022-11-09T12:58:30.111Z,1.32
2022-11-09T13:00:01.551Z,1.28
2022-11-09T13:01:33.201Z,1.24
2022-11-09T13:03:04.847Z,1.15
2022-11-09T13:04:36.177Z,1.19
2022-11-09T13:06:07.648Z,1.50
2022-11-09T13:07:38.985Z,1.48
2022-11-09T13:09:10.904Z,1.38
2022-11-09T13:10:42.723Z,1.31
2022-11-09T13:12:19.137Z,1.71
2022-11-09T13:13:50.598Z,1.73
2022-11-09T13:15:21.941Z,1.56
2022-11-09T13:16:53.567Z,1.60
2022-11-09T13:18:24.918Z,1.46
2022-11-09T13:19:56.427Z,1.50
2022-11-09T13:21:27.720Z,1.66
2022-11-09T13:22:59.099Z,1.47
2022-11-09T13:24:30.424Z,1.23
2022-11-09T13:26:02.051Z,0.85
2022-11-09T13:27:33.451Z,1.47
2022-11-09T13:29:04.795Z,1.31
2022-11-09T13:30:36.325Z,1.17
2022-11-09T13:32:07.787Z,1.34
2022-11-09T13:33:39.137Z,1.35
2022-11-09T13:35:10.471Z,1.35
2022-11-09T13:36:41.858Z,1.17
2022-11-09T13:38:13.225Z,1.08
2022-11-09T13:40:04.992Z,0.93
2022-11-09T13:41:36.314Z,1.42
2022-11-09T13:43:07.739Z,1.47
2022-11-09T13:44:39.988Z,1.35
2022-11-09T13:46:12.082Z,1.40
2022-11-09T13:47:43.472Z,1.64
2022-11-09T13:49:15.159Z,1.60
2022-11-09T13:50:46.770Z,1.35
2022-11-09T13:52:18.172Z,1.30
2022-11-09T13:53:49.490Z,1.14
2022-11-09T13:55:20.906Z,1.14
2022-11-09T13:56:52.307Z,1.64
2022-11-09T13:58:23.730Z,1.76
2022-11-09T13:59:55.221Z,1.59
2022-11-09T14:01:34.210Z,1.49
2022-11-09T14:03:08.519Z,1.58
2022-11-09T14:04:39.836Z,1.74
2022-11-09T14:06:11.106Z,1.56
2022-11-09T14:07:42.446Z,1.48
2022-11-09T14:09:14.042Z,1.42
2022-11-09T14:10:45.473Z,1.63
2022-11-09T14:12:16.853Z,1.51
2022-11-09T14:13:48.263Z,1.46
2022-11-09T14:15:19.672Z,1.54
2022-11-09T14:16:51.093Z,1.63
2022-11-09T14:18:22.450Z,1.74
2022-11-09T14:19:53.793Z,1.57
2022-11-09T14:21:25.177Z,1.65
2022-11-09T14:22:56.923Z,1.97
2022-11-09T14:24:28.247Z,1.77
2022-11-09T14:26:04.560Z,1.69
2022-11-09T14:27:36.209Z,1.41
2022-11-09T14:29:07.603Z,1.97
2022-11-09T14:30:39.074Z,1.94
2022-11-09T14:32:10.591Z,1.93
2022-11-09T14:33:41.894Z,1.91
2022-11-09T14:35:13.372Z,1.90
2022-11-09T14:36:46.011Z,1.96
2022-11-09T14:38:17.761Z,1.63
2022-11-09T14:39:49.529Z,1.59
2022-11-09T14:41:20.931Z,1.90
2022-11-09T14:42:52.517Z,1.74
2022-11-09T14:44:24.116Z,1.69
2022-11-09T14:45:55.539Z,1.91
2022-11-09T14:47:26.982Z,1.76
2022-11-09T14:48:58.476Z,1.92
2022-11-09T14:50:29.766Z,1.51
2022-11-09T14:52:01.283Z,1.71
2022-11-09T14:53:32.636Z,1.49
2022-11-09T14:55:03.909Z,1.58
2022-11-09T14:56:35.335Z,1.47
2022-11-09T14:58:06.803Z,1.25
2022-11-09T14:59:38.226Z,1.67
2022-11-09T15:01:09.668Z,1.74
2022-11-09T15:02:41.191Z,1.72
2022-11-09T15:04:12.640Z,1.82
2022-11-09T15:05:44.083Z,1.69
2022-11-09T15:07:15.515Z,1.91
2022-11-09T15:08:51.924Z,1.85
2022-11-09T15:10:23.193Z,1.78
2022-11-09T15:11:54.595Z,1.53
2022-11-09T15:13:25.975Z,1.36
2022-11-09T15:14:57.369Z,1.49
2022-11-09T15:16:28.751Z,1.57
2022-11-09T15:18:00.116Z,1.87
2022-11-09T15:19:31.469Z,1.69
2022-11-09T15:21:02.733Z,1.95
2022-11-09T15:22:34.029Z,1.64
2022-11-09T15:24:05.354Z,2.06
2022-11-09T15:25:36.882Z,1.84
2022-11-09T15:27:08.407Z,2.01
2022-11-09T15:28:39.894Z,1.70
2022-11-09T15:30:11.131Z,1.64
2022-11-09T15:31:42.450Z,2.01
2022-11-09T15:33:16.041Z,1.90
2022-11-09T15:34:47.396Z,1.94
2022-11-09T15:36:18.979Z,2.33
2022-11-09T15:37:50.332Z,1.91
2022-11-09T15:39:21.728Z,1.78
2022-11-09T15:40:53.077Z,2.01
2022-11-09T15:42:24.375Z,1.72
2022-11-09T15:43:55.729Z,1.73
2022-11-09T15:45:27.108Z,1.87
2022-11-09T15:46:58.946Z,1.81
2022-11-09T15:48:30.349Z,1.90
2022-11-09T15:50:01.973Z,1.30
2022-11-09T15:51:33.899Z,1.53
2022-11-09T15:53:05.238Z,1.59
2022-11-09T15:54:36.531Z,1.69
2022-11-09T15:56:07.786Z,1.61
2022-11-09T15:57:39.526Z,1.42
2022-11-09T15:59:10.916Z,1.57
2022-11-09T16:00:42.502Z,1.89
2022-11-09T16:02:19.331Z,1.34
2022-11-09T16:03:50.700Z,1.22
2022-11-09T16:05:22.449Z,1.47
2022-11-09T16:06:54.182Z,1.34
2022-11-09T16:08:25.612Z,1.50
2022-11-09T16:09:56.967Z,1.33
2022-11-09T16:11:28.427Z,1.43
2022-11-09T16:12:59.904Z,1.25
2022-11-09T16:14:31.216Z,1.63
2022-11-09T16:16:02.462Z,1.59
2022-11-09T16:17:33.758Z,1.79
2022-11-09T16:19:05.206Z,1.73
2022-11-09T16:20:36.527Z,1.77
2022-11-09T16:22:07.863Z,1.85
2022-11-09T16:23:39.220Z,2.24
2022-11-09T16:25:10.561Z,1.78
2022-11-09T16:26:41.939Z,1.76
2022-11-09T16:28:13.257Z,1.77
2022-11-09T16:29:44.603Z,1.83
2022-11-09T16:31:16.083Z,2.03
2022-11-09T16:32:48.601Z,2.39
2022-11-09T16:34:19.968Z,1.91
2022-11-09T16:35:51.493Z,2.08
2022-11-09T16:37:22.873Z,2.32
2022-11-09T16:38:54.315Z,1.88
2022-11-09T16:40:25.670Z,1.79
2022-11-09T16:41:57.266Z,2.48
2022-11-09T16:43:28.551Z,2.30
2022-11-09T16:44:59.911Z,2.45
2022-11-09T16:46:31.518Z,2.16
2022-11-09T16:48:02.914Z,2.42
2022-11-09T16:49:34.253Z,2.15
2022-11-09T16:51:06.093Z,2.27
2022-11-09T16:52:37.630Z,2.21
2022-11-09T16:54:09.050Z,2.21
2022-11-09T16:55:40.494Z,2.26
2022-11-09T16:57:11.885Z,2.40
2022-11-09T16:58:43.461Z,2.79
2022-11-09T17:00:14.777Z,2.28
2022-11-09T17:01:46.678Z,2.23
2022-11-09T17:03:18.068Z,2.45
2022-11-09T17:04:49.392Z,2.46
2022-11-09T17:06:20.975Z,2.15
2022-11-09T17:07:52.378Z,2.21
2022-11-09T17:09:23.734Z,2.33
2022-11-09T17:10:55.054Z,2.29
2022-11-09T17:12:26.407Z,2.18
2022-11-09T17:13:57.866Z,2.43
2022-11-09T17:15:29.332Z,2.34
2022-11-09T17:17:00.948Z,2.25
2022-11-09T17:18:32.236Z,2.19
2022-11-09T17:20:03.558Z,2.06
2022-11-09T17:21:40.011Z,2.07
2022-11-09T17:23:11.332Z,1.97
2022-11-09T17:24:47.922Z,2.24
2022-11-09T17:26:19.191Z,2.01
2022-11-09T17:27:50.728Z,2.27
2022-11-09T17:29:37.096Z,2.37
2022-11-09T17:31:22.720Z,2.50
2022-11-09T17:33:19.131Z,2.71
2022-11-09T17:35:03.654Z,2.34
2022-11-09T17:37:02.607Z,2.03
2022-11-09T17:38:35.427Z,1.88
2022-11-09T17:40:19.182Z,2.03
2022-11-09T17:41:50.972Z,2.09
2022-11-09T17:43:22.971Z,2.14
2022-11-09T17:44:56.718Z,2.12
2022-11-09T17:46:28.910Z,2.08
2022-11-09T17:48:18.011Z,1.99
2022-11-09T17:49:50.214Z,2.11
2022-11-09T17:51:21.834Z,1.88
2022-11-09T17:52:53.624Z,2.08
2022-11-09T17:54:41.443Z,2.15
2022-11-09T17:56:28.107Z,2.37
2022-11-09T17:58:06.747Z,2.12
2022-11-09T17:59:48.113Z,2.38
2022-11-09T18:01:42.548Z,2.14
2022-11-09T18:03:14.357Z,2.52
2022-11-09T18:05:15.877Z,2.06
2022-11-09T18:07:06.848Z,2.22
2022-11-09T18:08:38.840Z,2.06
2022-11-09T18:10:25.999Z,1.81
2022-11-09T18:11:57.603Z,2.12
2022-11-09T18:13:28.911Z,1.94
2022-11-09T18:15:00.583Z,1.85
2022-11-09T18:16:46.036Z,2.08
2022-11-09T18:18:19.897Z,2.20
2022-11-09T18:20:12.556Z,1.96
2022-11-09T18:21:56.245Z,1.82
2022-11-09T18:23:27.857Z,1.85
2022-11-09T18:24:59.265Z,1.58
2022-11-09T18:26:30.665Z,1.89
2022-11-09T18:28:02.412Z,1.86
2022-11-09T18:29:59.007Z,1.80
2022-11-09T18:31:56.557Z,1.36
2022-11-09T18:33:33.503Z,1.75
2022-11-09T18:35:32.733Z,1.41
2022-11-09T18:37:04.700Z,1.66
2022-11-09T18:38:49.938Z,1.69
2022-11-09T18:40:31.941Z,1.55
2022-11-09T18:42:08.568Z,1.67
2022-11-09T18:43:40.668Z,1.63
2022-11-09T18:45:17.662Z,1.70
2022-11-09T18:46:49.180Z,1.56
2022-11-09T18:48:21.250Z,1.82
2022-11-09T18:50:23.893Z,1.46
2022-11-09T18:52:00.592Z,1.64
2022-11-09T18:53:32.259Z,1.85
2022-11-09T18:55:04.341Z,1.52
2022-11-09T18:56:41.454Z,1.92
2022-11-09T18:59:28.583Z,2.38
2022-11-09T19:01:06.541Z,1.57
2022-11-09T19:02:38.635Z,1.56
2022-11-09T19:04:10.512Z,1.70
2022-11-09T19:05:42.393Z,1.52
2022-11-09T19:07:36.698Z,1.62
2022-11-09T19:09:20.770Z,1.64
2022-11-09T19:11:02.608Z,1.67
2022-11-09T19:12:59.431Z,1.69
2022-11-09T19:16:38.619Z,1.94
2022-11-09T19:18:10.785Z,1.60
2022-11-09T19:19:42.482Z,1.89
2022-11-09T19:21:20.664Z,1.80
2022-11-09T19:23:42.680Z,1.64
2022-11-09T19:25:21.024Z,1.99
2022-11-09T19:26:52.839Z,1.56
2022-11-09T19:28:38.454Z,1.94
2022-11-09T19:30:10.239Z,1.84
2022-11-09T19:31:49.213Z,2.16
2022-11-09T19:33:39.168Z,1.99
2022-11-09T19:35:10.891Z,1.77
2022-11-09T19:36:57.593Z,1.91
2022-11-09T19:38:56.180Z,1.77
2022-11-09T19:40:40.208Z,1.74
2022-11-09T19:42:31.498Z,1.82
2022-11-09T19:44:19.419Z,2.07
2022-11-09T19:46:01.789Z,1.49
2022-11-09T19:47:49.831Z,1.66
2022-11-09T19:49:31.744Z,1.55
2022-11-09T19:51:14.452Z,1.53
2022-11-09T19:52:55.971Z,1.56
2022-11-09T19:54:56.273Z,1.72
2022-11-09T19:56:38.279Z,1.67
2022-11-09T19:58:15.090Z,1.64
2022-11-09T19:59:51.744Z,1.61
2022-11-09T20:01:53.591Z,1.53
2022-11-09T20:03:25.522Z,1.44
2022-11-09T20:04:57.103Z,1.69
2022-11-09T20:06:48.517Z,1.67
2022-11-09T20:08:41.297Z,1.57
2022-11-09T20:10:12.903Z,1.62
2022-11-09T20:11:44.539Z,1.29
2022-11-09T20:13:19.347Z,1.37
2022-11-09T20:14:56.409Z,1.81
2022-11-09T20:16:27.774Z,1.51
2022-11-09T20:17:59.425Z,1.61
2022-11-09T20:19:52.461Z,1.88
2022-11-09T20:21:24.101Z,1.59
2022-11-09T20:22:55.891Z,1.33
2022-11-09T20:24:27.657Z,1.23
2022-11-09T20:25:59.526Z,1.84
2022-11-09T20:27:32.544Z,1.51
2022-11-09T20:29:04.292Z,2.04
2022-11-09T20:30:41.474Z,1.83
2022-11-09T20:32:14.852Z,2.25
2022-11-09T20:33:49.813Z,1.87
2022-11-09T20:35:21.704Z,1.88
2022-11-09T20:36:58.381Z,2.22
2022-11-09T20:38:29.700Z,2.18
2022-11-09T20:40:01.435Z,2.00
2022-11-09T20:41:32.881Z,1.84
2022-11-09T20:43:04.170Z,2.32
2022-11-09T20:44:53.243Z,3.15